Time;durP1;ratioP1;P1;durP2;ratioP2;P2;SDS_P1;SDS_P2;PMS_P1;PMS_P2;Temp;Humidity;BMP_temperature;BMP_pressure;BME280_temperature;BME280_humidity;BME280_pressure;Samples;Min_cycle;Max_cycle;Signal;HPM_P1;HPM_P2
2022/05/28 00:00:43;;;;;;;15.75;4.25;;;;;;;-145.45;100.00;62759.84;5323123;27;20511;-84
2022/05/28 00:03:20;;;;;;;12.55;4.20;;;;;;;-145.45;100.00;62759.84;5322698;27;20016;-85
2022/05/28 00:06:07;;;;;;;11.00;3.75;;;;;;;-145.45;100.00;62759.84;5322602;27;20024;-84
2022/05/28 00:09:04;;;;;;;19.27;5.00;;;;;;;-145.45;100.00;62759.84;5323634;28;20028;-85
2022/05/28 00:11:53;;;;;;;14.25;4.93;;;;;;;-145.45;100.00;62759.84;5321816;27;20048;-85
2022/05/28 00:14:33;;;;;;;16.80;3.85;;;;;;;-145.45;100.00;62759.84;5323874;27;20028;-85
2022/05/28 00:17:10;;;;;;;15.68;4.13;;;;;;;-145.45;100.00;62759.84;5345242;27;20020;-85
2022/05/28 00:19:51;;;;;;;12.35;4.30;;;;;;;-145.45;100.00;62759.84;5343650;27;20023;-84
2022/05/28 00:22:34;;;;;;;16.38;4.40;;;;;;;-145.45;100.00;62759.84;5345075;27;20512;-85
2022/05/28 00:25:24;;;;;;;13.57;4.47;;;;;;;-145.45;100.00;62759.84;5343341;27;20114;-85
2022/05/28 00:28:02;;;;;;;21.23;5.60;;;;;;;-145.45;100.00;62759.84;5343461;27;20028;-85
2022/05/28 00:30:49;;;;;;;;;;;;;;;;;;;;;
2022/05/28 00:33:24;;;;;;;13.98;4.15;;;;;;;-145.45;100.00;62759.84;5344268;27;41474;-84
2022/05/28 00:36:04;;;;;;;11.70;3.78;;;;;;;-145.45;100.00;62759.84;5347892;27;20042;-85
2022/05/28 00:38:42;;;;;;;14.55;4.47;;;;;;;-145.45;100.00;62759.84;5347158;27;20039;-85
2022/05/28 00:41:51;;;;;;;12.50;4.15;;;;;;;-145.45;100.00;62759.84;5330718;27;20039;-85
2022/05/28 00:44:22;;;;;;;12.82;4.70;;;;;;;-145.45;100.00;62759.84;5346555;27;20039;-85
2022/05/28 00:47:26;;;;;;;11.23;3.67;;;;;;;-145.45;100.00;62759.84;5347069;27;20028;-85
2022/05/28 00:50:03;;;;;;;20.05;5.47;;;;;;;-145.45;100.00;62759.84;5339469;27;20047;-84
2022/05/28 00:52:48;;;;;;;16.55;4.60;;;;;;;-145.45;100.00;62759.84;5346937;27;20134;-85
2022/05/28 00:55:29;;;;;;;14.20;4.53;;;;;;;-145.45;100.00;62759.84;5348694;27;20028;-84
2022/05/28 00:58:07;;;;;;;18.92;4.68;;;;;;;-145.45;100.00;62759.84;5363830;27;20024;-84
2022/05/28 01:00:44;;;;;;;16.52;4.90;;;;;;;-145.45;100.00;62759.84;5347801;27;20407;-85
2022/05/28 01:03:38;;;;;;;;;;;;;;;-145.45;100.00;62759.84;5329599;27;20468;-85
2022/05/28 01:06:44;;;;;;;19.52;5.00;;;;;;;-145.45;100.00;62759.84;5346693;27;19907;-85
2022/05/28 01:09:39;;;;;;;18.75;5.70;;;;;;;-145.45;100.00;62759.84;5348270;27;20022;-84
2022/05/28 01:12:20;;;;;;;18.95;6.38;;;;;;;-145.45;100.00;62759.84;5346281;27;20532;-84
2022/05/28 01:15:04;;;;;;;17.08;5.07;;;;;;;-145.45;100.00;62759.84;5346669;27;20486;-85
2022/05/28 01:18:07;;;;;;;16.58;5.32;;;;;;;-145.45;100.00;62759.84;5346708;27;20027;-84
2022/05/28 01:20:47;;;;;;;13.13;5.07;;;;;;;-145.45;100.00;62759.84;5339322;27;20044;-85
2022/05/28 01:24:05;;;;;;;9.93;4.80;;;;;;;-145.45;100.00;62759.84;5347393;27;20094;-85
2022/05/28 01:27:04;;;;;;;16.55;5.25;;;;;;;-145.45;100.00;62759.84;5316786;27;20036;-85
2022/05/28 01:29:44;;;;;;;16.38;5.43;;;;;;;-145.45;100.00;62759.84;5324590;28;20101;-85
2022/05/28 01:32:21;;;;;;;14.82;4.90;;;;;;;-145.45;100.00;62759.84;5325392;28;20084;-85
2022/05/28 01:35:00;;;;;;;17.20;6.55;;;;;;;-145.45;100.00;62759.84;5325123;28;20111;-85
2022/05/28 01:37:39;;;;;;;16.77;5.38;;;;;;;-145.45;100.00;62759.84;5325272;28;20028;-85
2022/05/28 01:40:21;;;;;;;19.98;5.68;;;;;;;-145.45;100.00;62759.84;5325328;28;20472;-84
2022/05/28 01:43:02;;;;;;;19.15;6.45;;;;;;;-145.45;100.00;62759.84;5325558;27;20036;-84
2022/05/28 01:45:38;;;;;;;16.52;4.60;;;;;;;-145.45;100.00;62759.84;5324390;28;20036;-85
2022/05/28 01:48:25;;;;;;;15.82;5.57;;;;;;;-145.45;100.00;62759.84;5323437;28;20457;-85
2022/05/28 01:51:03;;;;;;;14.30;5.05;;;;;;;-145.45;100.00;62759.84;5324918;28;20062;-84
2022/05/28 01:56:42;;;;;;;;;;;;;;;;;;;;;
2022/05/28 01:59:27;;;;;;;17.27;5.57;;;;;;;-145.45;100.00;62759.84;5325506;28;41555;-85
2022/05/28 02:02:09;;;;;;;17.33;5.45;;;;;;;-145.45;100.00;62759.84;5341688;27;20127;-84
2022/05/28 02:04:49;;;;;;;15.85;5.40;;;;;;;-145.45;100.00;62759.84;5326186;27;20456;-85
2022/05/28 02:07:25;;;;;;;16.85;4.78;;;;;;;-145.45;100.00;62759.84;5324667;28;20107;-85
2022/05/28 02:10:22;;;;;;;20.50;5.60;;;;;;;-145.45;100.00;62759.84;5324541;28;20505;-84
2022/05/28 02:13:43;;;;;;;20.55;6.20;;;;;;;-145.45;100.00;62759.84;5323412;28;20505;-85
2022/05/28 02:16:20;;;;;;;17.63;5.32;;;;;;;-145.45;100.00;62759.84;5265657;27;20433;-84
2022/05/28 02:19:10;;;;;;;13.98;5.10;;;;;;;-145.45;100.00;62759.84;5324038;28;20020;-84
2022/05/28 02:22:17;;;;;;;;;;;;;;;;;;;;;
2022/05/28 02:25:02;;;;;;;13.90;5.80;;;;;;;-145.45;100.00;62759.84;5325235;28;41575;-84
2022/05/28 02:27:44;;;;;;;22.17;6.78;;;;;;;-145.45;100.00;62759.84;5324366;28;20063;-84
2022/05/28 02:30:19;;;;;;;18.73;5.47;;;;;;;-145.45;100.00;62759.84;5323674;28;20024;-85
2022/05/28 02:33:14;;;;;;;22.02;6.82;;;;;;;-145.45;100.00;62759.84;5325655;27;20039;-84
2022/05/28 02:35:49;;;;;;;17.65;6.32;;;;;;;-145.45;100.00;62759.84;5325955;27;20032;-83
2022/05/28 02:38:25;;;;;;;18.02;6.93;;;;;;;-145.45;100.00;62759.84;5325403;27;20024;-83
2022/05/28 02:40:59;;;;;;;15.18;5.40;;;;;;;-145.45;100.00;62759.84;5323630;28;20070;-83
2022/05/28 02:43:31;;;;;;;19.05;6.60;;;;;;;-145.45;100.00;62759.84;5324076;28;20080;-84
2022/05/28 02:46:09;;;;;;;20.85;7.25;;;;;;;-145.45;100.00;62759.84;5323408;28;20024;-83
2022/05/28 02:48:44;;;;;;;15.90;6.93;;;;;;;-145.45;100.00;62759.84;5323550;27;20087;-83
2022/05/28 02:51:37;;;;;;;19.00;6.53;;;;;;;-145.45;100.00;62759.84;5324136;27;20093;-84
2022/05/28 02:54:21;;;;;;;18.40;6.10;;;;;;;-145.45;100.00;62759.84;5323839;27;20114;-83
2022/05/28 02:56:59;;;;;;;18.88;7.07;;;;;;;-145.45;100.00;62759.84;5340850;27;20032;-83
2022/05/28 02:59:47;;;;;;;19.42;6.53;;;;;;;-145.45;100.00;62759.84;5340313;27;20162;-84
2022/05/28 03:02:21;;;;;;;16.25;6.70;;;;;;;-145.45;100.00;62759.84;5323713;27;20035;-84
2022/05/28 03:05:03;;;;;;;;;;;;;;;;;;;;;
2022/05/28 03:07:35;;;;;;;22.88;6.55;;;;;;;-145.45;100.00;62759.84;5324153;28;41861;-84
2022/05/28 03:10:21;;;;;;;;;;;;;;;;;;;;;
2022/05/28 03:12:56;;;;;;;20.05;5.70;;;;;;;-145.45;100.00;62759.84;5304859;27;41692;-84
2022/05/28 03:15:47;;;;;;;15.63;5.28;;;;;;;-145.45;100.00;62759.84;5303819;28;20024;-84
2022/05/28 03:18:19;;;;;;;18.27;6.18;;;;;;;-145.45;100.00;62759.84;5285217;28;20197;-84
2022/05/28 03:20:50;;;;;;;16.65;5.45;;;;;;;-145.45;100.00;62759.84;5304731;28;20029;-84
2022/05/28 03:23:25;;;;;;;16.92;5.75;;;;;;;-145.45;100.00;62759.84;5302280;28;20025;-84
2022/05/28 03:26:15;;;;;;;15.93;5.55;;;;;;;-145.45;100.00;62759.84;5284151;28;20036;-84
2022/05/28 03:28:54;;;;;;;19.17;6.15;;;;;;;-145.45;100.00;62759.84;5283686;28;20029;-84
2022/05/28 03:31:52;;;;;;;16.50;5.75;;;;;;;-145.45;100.00;62759.84;5282116;28;20040;-84
2022/05/28 03:34:28;;;;;;;17.13;5.88;;;;;;;-145.45;100.00;62759.84;5284661;28;20429;-84
2022/05/28 03:37:14;;;;;;;13.98;5.85;;;;;;;-145.45;100.00;62759.84;5281439;28;20040;-84
2022/05/28 03:39:48;;;;;;;15.18;5.43;;;;;;;-145.45;100.00;62759.84;5301146;28;20056;-84
2022/05/28 03:42:30;;;;;;;19.10;6.55;;;;;;;-145.45;100.00;62759.84;5285552;28;20164;-84
2022/05/28 03:45:15;;;;;;;20.98;5.75;;;;;;;-145.45;100.00;62759.84;5284457;28;20020;-84
2022/05/28 03:47:58;;;;;;;14.38;5.40;;;;;;;-145.45;100.00;62759.84;5302884;28;20182;-84
2022/05/28 03:50:40;;;;;;;23.13;5.15;;;;;;;-145.45;100.00;62759.84;5284429;28;20043;-84
2022/05/28 03:53:18;;;;;;;14.15;5.07;;;;;;;-145.45;100.00;62759.84;5284702;28;20082;-84
2022/05/28 03:55:54;;;;;;;12.85;4.45;;;;;;;-145.45;100.00;62759.84;5284718;28;20029;-84
2022/05/28 03:58:28;;;;;;;23.23;5.93;;;;;;;-145.45;100.00;62759.84;5302542;28;20031;-84
2022/05/28 04:01:03;;;;;;;16.17;6.45;;;;;;;-145.45;100.00;62759.84;5284495;28;20091;-84
2022/05/28 04:03:39;;;;;;;17.73;5.70;;;;;;;-145.45;100.00;62759.84;5285091;28;20086;-83
2022/05/28 04:06:29;;;;;;;19.10;6.53;;;;;;;-145.45;100.00;62759.84;5284202;28;20029;-84
2022/05/28 04:09:04;;;;;;;19.42;6.63;;;;;;;-145.45;100.00;62759.84;5284295;28;20017;-83
2022/05/28 04:11:45;;;;;;;20.90;6.60;;;;;;;-145.45;100.00;62759.84;5296642;28;20040;-84
2022/05/28 04:14:27;;;;;;;21.50;6.65;;;;;;;-145.45;100.00;62759.84;5325502;27;20032;-85
2022/05/28 04:16:58;;;;;;;21.20;6.35;;;;;;;-145.45;100.00;62759.84;5327520;27;20035;-83
2022/05/28 04:19:38;;;;;;;20.38;7.05;;;;;;;-145.45;100.00;62759.84;5327084;27;20456;-84
2022/05/28 04:22:33;;;;;;;20.38;6.45;;;;;;;-145.45;100.00;62759.84;5326227;28;20111;-84
2022/05/28 04:25:17;;;;;;;21.25;6.72;;;;;;;-145.45;100.00;62759.84;5341003;27;20073;-84
2022/05/28 04:27:58;;;;;;;22.75;6.25;;;;;;;-145.45;100.00;62759.84;5343701;27;20491;-84
2022/05/28 04:31:14;;;;;;;16.70;6.72;;;;;;;-145.45;100.00;62759.84;5348968;27;20020;-84
2022/05/28 04:33:46;;;;;;;17.67;6.25;;;;;;;-145.45;100.00;62759.84;5347378;27;20011;-84
2022/05/28 04:36:30;;;;;;;18.05;6.53;;;;;;;-145.45;100.00;62759.84;5351903;27;20145;-84
2022/05/28 04:39:10;;;;;;;26.42;7.70;;;;;;;-145.45;100.00;62759.84;5348787;27;20027;-84
2022/05/28 04:41:41;;;;;;;20.13;6.30;;;;;;;-145.45;100.00;62759.84;5347811;27;20165;-84
2022/05/28 04:44:21;;;;;;;16.15;5.95;;;;;;;-145.45;100.00;62759.84;5358426;27;20421;-83
2022/05/28 04:46:56;;;;;;;22.40;6.10;;;;;;;-145.45;100.00;62759.84;5359314;27;20031;-84
2022/05/28 04:49:37;;;;;;;22.23;6.47;;;;;;;-145.45;100.00;62759.84;5361759;27;20024;-84
2022/05/28 04:52:18;;;;;;;25.05;6.75;;;;;;;-145.45;100.00;62759.84;5353336;27;20165;-84
2022/05/28 04:54:53;;;;;;;15.25;6.63;;;;;;;-145.45;100.00;62759.84;5358191;27;20046;-84
2022/05/28 04:58:00;;;;;;;16.65;7.15;;;;;;;-145.45;100.00;62759.84;5360553;27;20031;-84
2022/05/28 05:00:34;;;;;;;14.13;6.18;;;;;;;-145.45;100.00;62759.84;5318217;27;20047;-83
2022/05/28 05:03:08;;;;;;;16.67;6.25;;;;;;;-145.45;100.00;62759.84;5352045;27;20040;-84
2022/05/28 05:05:43;;;;;;;17.30;5.70;;;;;;;-145.45;100.00;62759.84;5329224;27;20467;-84
2022/05/28 05:08:23;;;;;;;20.88;6.72;;;;;;;-145.45;100.00;62759.84;5327471;27;20030;-83
2022/05/28 05:10:57;;;;;;;14.52;5.63;;;;;;;-145.45;100.00;62759.84;5328006;27;20025;-84
2022/05/28 05:13:29;;;;;;;22.42;6.30;;;;;;;-145.45;100.00;62759.84;5325734;27;20389;-84
2022/05/28 05:16:13;;;;;;;23.20;6.40;;;;;;;-145.45;100.00;62759.84;5308599;27;20035;-84
2022/05/28 05:19:05;;;;;;;23.10;5.90;;;;;;;-145.45;100.00;62759.84;5325134;27;20027;-84
2022/05/28 05:21:57;;;;;;;23.42;5.55;;;;;;;-145.45;100.00;62759.84;5325831;27;20036;-84
2022/05/28 05:24:41;;;;;;;18.58;5.20;;;;;;;-145.45;100.00;62759.84;5332406;27;20035;-84
2022/05/28 05:27:18;;;;;;;16.33;4.30;;;;;;;-145.45;100.00;62759.84;5346358;27;20036;-84
2022/05/28 05:29:59;;;;;;;16.52;3.65;;;;;;;-145.45;100.00;62759.84;5347244;27;20066;-85
2022/05/28 05:32:56;;;;;;;12.88;3.50;;;;;;;-145.45;100.00;62759.84;5346282;27;20097;-85
2022/05/28 05:35:28;;;;;;;13.27;2.75;;;;;;;-145.45;100.00;62759.84;5333249;27;20038;-84
2022/05/28 05:38:35;;;;;;;13.00;3.17;;;;;;;-145.45;100.00;62759.84;5349558;27;20023;-84
2022/05/28 05:41:22;;;;;;;11.23;3.00;;;;;;;-145.45;100.00;62759.84;5342147;27;20127;-84
2022/05/28 05:44:29;;;;;;;;;;;;;;;;;;;;;
2022/05/28 05:47:25;;;;;;;6.45;2.00;;;;;;;-145.45;100.00;62759.84;5327818;28;41330;-84
2022/05/28 05:50:14;;;;;;;11.55;1.85;;;;;;;-145.45;100.00;62759.84;5260047;28;20153;-84
2022/05/28 05:52:50;;;;;;;8.38;1.73;;;;;;;-145.45;100.00;62759.84;5276199;27;20036;-84
2022/05/28 05:55:32;;;;;;;8.98;2.28;;;;;;;-145.45;100.00;62759.84;5325841;27;20060;-85
2022/05/28 05:58:20;;;;;;;8.13;2.08;;;;;;;-145.45;100.00;62759.84;5325831;27;20028;-85
2022/05/28 06:00:57;;;;;;;12.00;2.13;;;;;;;-145.45;100.00;62759.84;5324927;28;20082;-85
2022/05/28 06:03:29;;;;;;;9.77;2.10;;;;;;;-145.45;100.00;62759.84;5324779;28;20020;-85
2022/05/28 06:06:16;;;;;;;9.75;1.65;;;;;;;-145.45;100.00;62759.84;5326899;27;20044;-83
2022/05/28 06:08:53;;;;;;;7.38;1.52;;;;;;;-145.45;100.00;62759.84;5325611;27;20457;-84
2022/05/28 06:11:36;;;;;;;7.53;1.38;;;;;;;-145.45;100.00;62759.84;5321489;28;20067;-84
2022/05/28 06:14:15;;;;;;;6.90;1.25;;;;;;;-145.45;100.00;62759.84;5304924;28;20040;-84
2022/05/28 06:16:54;;;;;;;6.78;1.25;;;;;;;-145.45;100.00;62759.84;5286475;28;20062;-84
2022/05/28 06:19:45;;;;;;;8.23;1.70;;;;;;;-145.45;100.00;62759.84;5286407;28;20028;-84
2022/05/28 06:22:24;;;;;;;10.05;1.63;;;;;;;-145.45;100.00;62759.84;5305304;28;20796;-85
2022/05/28 06:25:18;;;;;;;5.80;1.52;;;;;;;-145.45;100.00;62759.84;5305717;28;20099;-84
2022/05/28 06:27:50;;;;;;;6.75;1.42;;;;;;;-145.45;100.00;62759.84;5283648;28;20040;-84
2022/05/28 06:30:31;;;;;;;11.98;1.90;;;;;;;-145.45;100.00;62759.84;5287253;28;20419;-84
2022/05/28 06:33:08;;;;;;;7.13;1.48;;;;;;;-145.45;100.00;62759.84;5283409;28;20097;-84
2022/05/28 06:36:04;;;;;;;5.95;1.38;;;;;;;-145.45;100.00;62759.84;5285941;28;20020;-84
2022/05/28 06:38:45;;;;;;;5.95;1.40;;;;;;;-145.45;100.00;62759.84;5285638;28;20020;-84
2022/05/28 06:41:48;;;;;;;9.25;2.13;;;;;;;-145.45;100.00;62759.84;5303362;28;20091;-84
2022/05/28 06:44:22;;;;;;;6.85;1.70;;;;;;;-145.45;100.00;62759.84;5285399;28;20048;-84
2022/05/28 06:47:15;;;;;;;6.57;1.63;;;;;;;-145.45;100.00;62759.84;5304269;28;20035;-84
2022/05/28 06:53:09;;;;;;;7.43;1.35;;;;;;;-145.45;100.00;62759.84;5303562;28;20032;-84
2022/05/28 06:55:51;;;;;;;6.15;1.38;;;;;;;-145.45;100.00;62759.84;5285587;28;20016;-83
2022/05/28 06:58:26;;;;;;;4.22;1.02;;;;;;;-145.45;100.00;62759.84;5284854;28;20021;-83
2022/05/28 07:00:59;;;;;;;6.50;1.25;;;;;;;-145.45;100.00;62759.84;5303955;28;20029;-83
2022/05/28 07:03:43;;;;;;;8.07;1.65;;;;;;;-145.45;100.00;62759.84;5305077;28;20100;-86
2022/05/28 07:06:15;;;;;;;8.80;1.60;;;;;;;-145.45;100.00;62759.84;5303989;28;20476;-83
2022/05/28 07:08:49;;;;;;;9.13;1.63;;;;;;;-145.45;100.00;62759.84;5306817;28;20106;-83
2022/05/28 07:11:28;;;;;;;9.27;1.35;;;;;;;-145.45;100.00;62759.84;5305929;27;20051;-84
2022/05/28 07:14:22;;;;;;;11.30;1.73;;;;;;;-145.45;100.00;62759.84;5324770;28;20447;-83
2022/05/28 07:17:12;;;;;;;;;;;;;;;;;;;;;
2022/05/28 07:19:54;;;;;;;5.28;1.30;;;;;;;-145.45;100.00;62759.84;5324478;28;40789;-83
2022/05/28 07:22:29;;;;;;;6.93;1.80;;;;;;;-145.45;100.00;62759.84;5306555;28;20040;-83
2022/05/28 07:25:08;;;;;;;5.72;1.20;;;;;;;-145.45;100.00;62759.84;5324406;28;20051;-84
2022/05/28 07:28:24;;;;;;;5.32;1.23;;;;;;;-145.45;100.00;62759.84;5324765;28;20016;-84
2022/05/28 07:31:11;;;;;;;7.20;1.48;;;;;;;-145.45;100.00;62759.84;5324968;28;20025;-84
2022/05/28 07:33:51;;;;;;;6.05;1.30;;;;;;;-145.45;100.00;62759.84;5324549;28;20103;-83
2022/05/28 07:36:26;;;;;;;5.20;1.63;;;;;;;-145.45;100.00;62759.84;5324818;28;20499;-84
2022/05/28 07:38:58;;;;;;;5.22;1.13;;;;;;;-145.45;100.00;62759.84;5301560;28;20078;-83
2022/05/28 07:41:48;;;;;;;6.25;1.10;;;;;;;-145.45;100.00;62759.84;5284873;28;20120;-83
2022/05/28 07:44:33;;;;;;;8.30;1.63;;;;;;;-145.45;100.00;62759.84;5300852;28;20039;-82
2022/05/28 07:47:08;;;;;;;4.30;1.23;;;;;;;-145.45;100.00;62759.84;5301976;28;20087;-83
2022/05/28 07:49:58;;;;;;;5.72;1.30;;;;;;;-145.45;100.00;62759.84;5303023;28;20016;-84
2022/05/28 07:52:34;;;;;;;4.90;1.20;;;;;;;-145.45;100.00;62759.84;5303210;28;20560;-84
2022/05/28 07:55:12;;;;;;;6.38;1.20;;;;;;;-145.45;100.00;62759.84;5284694;28;20489;-84
2022/05/28 07:57:56;;;;;;;6.20;1.10;;;;;;;-145.45;100.00;62759.84;5302756;28;20051;-84
2022/05/28 08:00:32;;;;;;;5.13;1.10;;;;;;;-145.45;100.00;62759.84;5284467;28;20041;-83
2022/05/28 08:03:07;;;;;;;7.93;1.30;;;;;;;-145.45;100.00;62759.84;5284349;28;20025;-84
2022/05/28 08:05:41;;;;;;;6.80;1.35;;;;;;;-145.45;100.00;62759.84;5283800;28;20052;-84
2022/05/28 08:08:17;;;;;;;5.05;1.40;;;;;;;-145.45;100.00;62759.84;5284882;28;20455;-84
2022/05/28 08:10:52;;;;;;;6.53;1.83;;;;;;;-145.45;100.00;62759.84;5302767;28;20444;-83
2022/05/28 08:13:25;;;;;;;8.20;1.42;;;;;;;-145.45;100.00;62759.84;5302080;28;20063;-84
2022/05/28 08:15:59;;;;;;;5.75;1.23;;;;;;;-145.45;100.00;62759.84;5284950;28;20086;-84
2022/05/28 08:18:31;;;;;;;6.18;1.17;;;;;;;-145.45;100.00;62759.84;5302668;28;20365;-83
2022/05/28 08:23:59;;;;;;;9.15;1.50;;;;;;;-145.45;100.00;62759.84;5306100;28;20484;-84
2022/05/28 08:27:11;;;;;;;3.72;0.95;;;;;;;-145.45;100.00;62759.84;5303250;28;20495;-84
2022/05/28 08:29:49;;;;;;;3.63;1.10;;;;;;;-145.45;100.00;62759.84;5300549;28;20093;-84
2022/05/28 08:32:33;;;;;;;5.07;1.30;;;;;;;-145.45;100.00;62759.84;5302258;28;20049;-84
2022/05/28 08:35:10;;;;;;;4.72;1.33;;;;;;;-145.45;100.00;62759.84;5302474;28;20021;-84
2022/05/28 08:37:45;;;;;;;4.68;1.10;;;;;;;-145.45;100.00;62759.84;5297160;28;20024;-84
2022/05/28 08:40:25;;;;;;;7.50;1.40;;;;;;;-145.45;100.00;62759.84;5302436;28;20525;-84
2022/05/28 08:42:58;;;;;;;7.57;1.35;;;;;;;-145.45;100.00;62759.84;5301886;28;20108;-83
2022/05/28 08:45:43;;;;;;;6.40;1.40;;;;;;;-145.45;100.00;62759.84;5284430;28;20408;-84
2022/05/28 08:48:45;;;;;;;4.13;1.20;;;;;;;-145.45;100.00;62759.84;5302368;28;20073;-84
2022/05/28 08:51:51;;;;;;;4.80;1.50;;;;;;;-145.45;100.00;62759.84;5263764;28;20037;-84
2022/05/28 08:55:00;;;;;;;5.40;1.20;;;;;;;-145.45;100.00;62759.84;5265817;28;20383;-84
2022/05/28 08:57:53;;;;;;;4.85;1.20;;;;;;;-145.45;100.00;62759.84;5286309;28;20262;-84
2022/05/28 09:00:45;;;;;;;;;;;;;;;-145.45;100.00;62759.84;5305779;28;20021;-84
2022/05/28 09:03:27;;;;;;;7.30;1.30;;;;;;;-145.45;100.00;62759.84;5286593;28;19913;-84
2022/05/28 09:06:09;;;;;;;3.88;1.13;;;;;;;-145.45;100.00;62759.84;5286619;28;20020;-83
2022/05/28 09:08:46;;;;;;;5.18;1.63;;;;;;;-145.45;100.00;62759.84;5286675;28;20037;-83
2022/05/28 09:11:25;;;;;;;6.18;1.30;;;;;;;-145.45;100.00;62759.84;5286346;28;20154;-83
2022/05/28 09:14:22;;;;;;;6.03;1.58;;;;;;;-145.45;100.00;62759.84;5286505;28;20476;-83
2022/05/28 09:16:55;;;;;;;;;;;;;;;-145.45;100.00;62759.84;5295995;28;20025;-83
2022/05/28 09:19:58;;;;;;;5.90;1.30;;;;;;;-145.45;100.00;62759.84;5287114;28;20429;-83
2022/05/28 09:22:52;;;;;;;7.22;1.60;;;;;;;-145.45;100.00;62759.84;5269508;28;20382;-83
2022/05/28 09:25:32;;;;;;;4.43;1.13;;;;;;;-145.45;100.00;62759.84;5302222;28;20020;-84
2022/05/28 09:28:14;;;;;;;6.68;1.50;;;;;;;-145.45;100.00;62759.84;5307063;28;20144;-84
2022/05/28 09:31:14;;;;;;;6.32;1.23;;;;;;;-145.45;100.00;62759.84;5307753;28;20024;-84
2022/05/28 09:34:17;;;;;;;4.20;1.25;;;;;;;-145.45;100.00;62759.84;5326484;28;20036;-83
2022/05/28 09:37:19;;;;;;;6.20;1.48;;;;;;;-145.45;100.00;62759.84;5307458;28;20020;-83
2022/05/28 09:39:56;;;;;;;6.20;1.67;;;;;;;-145.45;100.00;62759.84;5325831;28;20030;-84
2022/05/28 09:43:02;;;;;;;6.72;1.38;;;;;;;-145.45;100.00;62759.84;5306148;28;20690;-83
2022/05/28 09:45:52;;;;;;;6.25;1.23;;;;;;;-145.45;100.00;62759.84;5307909;28;20097;-83
2022/05/28 09:48:26;;;;;;;7.32;1.20;;;;;;;-145.45;100.00;62759.84;5326085;28;24300;-83
2022/05/28 09:50:57;;;;;;;5.82;1.23;;;;;;;-145.45;100.00;62759.84;5326702;28;20091;-83
2022/05/28 09:56:36;;;;;;;5.70;1.10;;;;;;;-145.45;100.00;62759.84;5325428;28;20035;-83
2022/05/28 09:59:44;;;;;;;9.38;1.92;;;;;;;-145.45;100.00;62759.84;5325087;28;20024;-83
2022/05/28 10:02:31;;;;;;;6.43;1.45;;;;;;;-145.45;100.00;62759.84;5307669;28;20070;-83
2022/05/28 10:05:11;;;;;;;8.65;1.58;;;;;;;-145.45;100.00;62759.84;5306814;28;20028;-84
2022/05/28 10:07:47;;;;;;;7.60;2.22;;;;;;;-145.45;100.00;62759.84;5305636;28;20055;-84
2022/05/28 10:10:26;;;;;;;5.55;1.52;;;;;;;-145.45;100.00;62759.84;5325534;28;20075;-84
2022/05/28 10:13:13;;;;;;;6.97;1.55;;;;;;;-145.45;100.00;62759.84;5324782;27;20040;-83
2022/05/28 10:15:46;;;;;;;5.65;1.17;;;;;;;-145.45;100.00;62759.84;5325540;28;20109;-83
2022/05/28 10:18:23;;;;;;;5.65;1.20;;;;;;;-145.45;100.00;62759.84;5325803;28;20145;-84
2022/05/28 10:21:06;;;;;;;7.25;1.70;;;;;;;-145.45;100.00;62759.84;5325537;28;20020;-83
2022/05/28 10:23:43;;;;;;;8.00;1.60;;;;;;;-145.45;100.00;62759.84;5306772;28;20032;-84
2022/05/28 10:26:31;;;;;;;8.27;1.35;;;;;;;-145.45;100.00;62759.84;5289835;28;20128;-84
2022/05/28 10:29:06;;;;;;;7.68;0.95;;;;;;;-145.45;100.00;62759.84;5290560;28;20024;-84
2022/05/28 10:31:44;;;;;;;4.60;1.40;;;;;;;-145.45;100.00;62759.84;5303763;28;20044;-83
2022/05/28 10:34:37;;;;;;;5.32;1.30;;;;;;;-145.45;100.00;62759.84;5285964;28;20355;-84
2022/05/28 10:37:15;;;;;;;5.35;1.33;;;;;;;-145.45;100.00;62759.84;5286406;28;20347;-82
2022/05/28 10:39:47;;;;;;;3.55;0.98;;;;;;;-145.45;100.00;62759.84;5285860;28;20017;-82
2022/05/28 10:42:20;;;;;;;5.40;1.15;;;;;;;-145.45;100.00;62759.84;5304292;28;20451;-82
2022/05/28 10:44:52;;;;;;;9.23;1.67;;;;;;;-145.45;100.00;62759.84;5268225;28;20437;-82
2022/05/28 10:47:48;;;;;;;5.82;1.55;;;;;;;-145.45;100.00;62759.84;5282303;28;20048;-83
2022/05/28 10:50:36;;;;;;;4.78;1.20;;;;;;;-145.45;100.00;62759.84;5285523;28;20055;-82
2022/05/28 10:53:13;;;;;;;5.60;1.17;;;;;;;-145.45;100.00;62759.84;5303336;28;20541;-82
2022/05/28 10:56:10;;;;;;;2.83;0.85;;;;;;;-145.45;100.00;62759.84;5303863;28;20021;-83
2022/05/28 10:59:05;;;;;;;6.35;1.20;;;;;;;-145.45;100.00;62759.84;5302944;28;20421;-83
2022/05/28 11:01:57;;;;;;;6.70;1.20;;;;;;;-145.45;100.00;62759.84;5303464;28;20028;-83
2022/05/28 11:04:49;;;;;;;6.88;1.38;;;;;;;-145.45;100.00;62759.84;5303165;28;20024;-82
2022/05/28 11:07:38;;;;;;;5.90;1.45;;;;;;;-145.45;100.00;62759.84;5285273;28;20050;-82
2022/05/28 11:10:16;;;;;;;4.50;1.30;;;;;;;-145.45;100.00;62759.84;5284953;28;20024;-82
2022/05/28 11:12:56;;;;;;;6.15;1.30;;;;;;;-145.45;100.00;62759.84;5303007;28;20052;-82
2022/05/28 11:15:28;;;;;;;10.70;1.30;;;;;;;-145.45;100.00;62759.84;5285096;28;20025;-82
2022/05/28 11:18:17;;;;;;;8.10;1.67;;;;;;;-145.45;100.00;62759.84;5303029;28;20025;-82
2022/05/28 11:21:14;;;;;;;5.25;1.17;;;;;;;-145.45;100.00;62759.84;5284585;28;20036;-82
2022/05/28 11:24:13;;;;;;;4.32;0.93;;;;;;;-145.45;100.00;62759.84;5284544;28;20059;-82
2022/05/28 11:27:07;;;;;;;4.28;0.80;;;;;;;-145.45;100.00;62759.84;5284682;28;20441;-82
2022/05/28 11:29:58;;;;;;;3.25;0.82;;;;;;;-145.45;100.00;62759.84;5302575;28;20012;-83
2022/05/28 11:32:55;;;;;;;4.70;1.00;;;;;;;-145.45;100.00;62759.84;5303559;28;20060;-83
2022/05/28 11:36:08;;;;;;;3.80;1.00;;;;;;;-145.45;100.00;62759.84;5303164;28;20463;-83
2022/05/28 11:38:53;;;;;;;3.80;1.10;;;;;;;-145.45;100.00;62759.84;5266573;28;20451;-83
2022/05/28 11:41:34;;;;;;;4.20;0.80;;;;;;;-145.45;100.00;62759.84;5284695;28;20044;-83
2022/05/28 11:44:17;;;;;;;3.80;1.00;;;;;;;-145.45;100.00;62759.84;5302758;28;20082;-83
2022/05/28 11:46:59;;;;;;;4.03;1.17;;;;;;;-145.45;100.00;62759.84;5303211;28;20397;-83
2022/05/28 11:52:41;;;;;;;4.53;1.20;;;;;;;-145.45;100.00;62759.84;5303686;28;20029;-83
2022/05/28 11:55:20;;;;;;;5.00;0.90;;;;;;;-145.45;100.00;62759.84;5284884;28;20017;-83
2022/05/28 11:58:00;;;;;;;4.43;1.45;;;;;;;-145.45;100.00;62759.84;5287407;28;20062;-83
2022/05/28 12:00:34;;;;;;;4.82;1.05;;;;;;;-145.45;100.00;62759.84;5287177;28;20119;-83
2022/05/28 12:03:16;;;;;;;5.25;1.00;;;;;;;-145.45;100.00;62759.84;5306679;28;20044;-83
2022/05/28 12:06:18;;;;;;;4.38;0.90;;;;;;;-145.45;100.00;62759.84;5305345;28;20036;-82
2022/05/28 12:08:59;;;;;;;7.03;1.30;;;;;;;-145.45;100.00;62759.84;5305247;28;20443;-82
2022/05/28 12:11:37;;;;;;;3.63;0.90;;;;;;;-145.45;100.00;62759.84;5304437;28;20059;-83
2022/05/28 12:14:33;;;;;;;5.95;1.40;;;;;;;-145.45;100.00;62759.84;5283437;28;20032;-82
2022/05/28 12:17:11;;;;;;;6.18;1.33;;;;;;;-145.45;100.00;62759.84;5302758;28;20024;-82
2022/05/28 12:19:51;;;;;;;4.45;1.17;;;;;;;-145.45;100.00;62759.84;5284316;28;20471;-82
2022/05/28 12:22:26;;;;;;;4.45;1.40;;;;;;;-145.45;100.00;62759.84;5284874;28;20078;-83
2022/05/28 12:25:29;;;;;;;5.03;1.27;;;;;;;-145.45;100.00;62759.84;5314074;28;20035;-83
2022/05/28 12:28:12;;;;;;;5.15;1.33;;;;;;;-145.45;100.00;62759.84;5290443;28;20060;-83
2022/05/28 12:30:46;;;;;;;7.13;1.55;;;;;;;-145.45;100.00;62759.84;5285033;28;20453;-83
2022/05/28 12:33:50;;;;;;;4.88;1.52;;;;;;;-145.45;100.00;62759.84;5305851;28;20922;-83
2022/05/28 12:36:30;;;;;;;4.85;1.30;;;;;;;-145.45;100.00;62759.84;5305703;28;20124;-84
2022/05/28 12:39:06;;;;;;;6.10;1.48;;;;;;;-145.45;100.00;62759.84;5305911;28;20499;-83
2022/05/28 12:41:38;;;;;;;4.90;0.95;;;;;;;-145.45;100.00;62759.84;5287224;28;20067;-83
2022/05/28 12:44:20;;;;;;;4.22;1.77;;;;;;;-145.45;100.00;62759.84;5287013;28;20463;-83
2022/05/28 12:46:59;;;;;;;4.45;1.55;;;;;;;-145.45;100.00;62759.84;5305916;28;20028;-83